sensor_id;sensor_type;location;lat;lon;timestamp;P1;durP1;ratioP1;P2;durP2;ratioP2
13927;SDS011;7036;50.834;4.718;2024-01-27T00:01:27;4.68;;;3.03;;
13927;SDS011;7036;50.834;4.718;2024-01-27T00:03:55;4.88;;;3.13;;
13927;SDS011;7036;50.834;4.718;2024-01-27T00:06:23;3.90;;;2.75;;
13927;SDS011;7036;50.834;4.718;2024-01-27T00:08:51;3.88;;;2.70;;
13927;SDS011;7036;50.834;4.718;2024-01-27T00:11:19;5.88;;;3.35;;
13927;SDS011;7036;50.834;4.718;2024-01-27T00:13:47;4.80;;;2.90;;
13927;SDS011;7036;50.834;4.718;2024-01-27T00:16:15;3.55;;;2.78;;
13927;SDS011;7036;50.834;4.718;2024-01-27T00:18:43;7.97;;;3.05;;
13927;SDS011;7036;50.834;4.718;2024-01-27T00:21:11;5.60;;;3.08;;
13927;SDS011;7036;50.834;4.718;2024-01-27T00:23:39;5.07;;;3.08;;
13927;SDS011;7036;50.834;4.718;2024-01-27T00:26:07;6.50;;;3.08;;
13927;SDS011;7036;50.834;4.718;2024-01-27T00:28:35;3.80;;;3.05;;
13927;SDS011;7036;50.834;4.718;2024-01-27T00:31:03;6.00;;;2.97;;
13927;SDS011;7036;50.834;4.718;2024-01-27T00:33:31;6.40;;;3.83;;
13927;SDS011;7036;50.834;4.718;2024-01-27T00:35:59;3.88;;;3.05;;
13927;SDS011;7036;50.834;4.718;2024-01-27T00:38:27;5.78;;;3.05;;
13927;SDS011;7036;50.834;4.718;2024-01-27T00:40:55;4.68;;;2.90;;
13927;SDS011;7036;50.834;4.718;2024-01-27T00:43:22;4.97;;;2.83;;
13927;SDS011;7036;50.834;4.718;2024-01-27T00:45:49;5.82;;;3.53;;
13927;SDS011;7036;50.834;4.718;2024-01-27T00:48:16;6.55;;;3.58;;
13927;SDS011;7036;50.834;4.718;2024-01-27T00:50:44;5.53;;;3.10;;
13927;SDS011;7036;50.834;4.718;2024-01-27T00:53:11;5.50;;;3.65;;
13927;SDS011;7036;50.834;4.718;2024-01-27T00:55:39;3.80;;;2.42;;
13927;SDS011;7036;50.834;4.718;2024-01-27T00:58:07;6.72;;;3.47;;
13927;SDS011;7036;50.834;4.718;2024-01-27T01:00:35;6.13;;;3.35;;
13927;SDS011;7036;50.834;4.718;2024-01-27T01:03:03;7.53;;;3.45;;
13927;SDS011;7036;50.834;4.718;2024-01-27T01:05:31;6.43;;;3.20;;
13927;SDS011;7036;50.834;4.718;2024-01-27T01:07:59;4.18;;;3.00;;
13927;SDS011;7036;50.834;4.718;2024-01-27T01:10:27;5.25;;;3.40;;
13927;SDS011;7036;50.834;4.718;2024-01-27T01:12:55;4.88;;;3.30;;
13927;SDS011;7036;50.834;4.718;2024-01-27T01:15:23;4.05;;;3.17;;
13927;SDS011;7036;50.834;4.718;2024-01-27T01:17:51;4.80;;;3.22;;
13927;SDS011;7036;50.834;4.718;2024-01-27T01:20:19;5.13;;;3.35;;
13927;SDS011;7036;50.834;4.718;2024-01-27T01:22:46;5.65;;;3.67;;
13927;SDS011;7036;50.834;4.718;2024-01-27T01:25:14;5.82;;;3.47;;
13927;SDS011;7036;50.834;4.718;2024-01-27T01:27:42;6.38;;;3.78;;
13927;SDS011;7036;50.834;4.718;2024-01-27T01:30:10;5.22;;;3.25;;
13927;SDS011;7036;50.834;4.718;2024-01-27T01:32:37;5.53;;;3.83;;
13927;SDS011;7036;50.834;4.718;2024-01-27T01:35:04;8.80;;;3.97;;
13927;SDS011;7036;50.834;4.718;2024-01-27T01:37:31;8.48;;;4.00;;
13927;SDS011;7036;50.834;4.718;2024-01-27T01:39:59;4.13;;;2.97;;
13927;SDS011;7036;50.834;4.718;2024-01-27T01:42:27;4.55;;;3.50;;
13927;SDS011;7036;50.834;4.718;2024-01-27T01:44:55;5.22;;;3.67;;
13927;SDS011;7036;50.834;4.718;2024-01-27T01:47:22;6.50;;;3.70;;
13927;SDS011;7036;50.834;4.718;2024-01-27T01:49:49;5.38;;;3.63;;
13927;SDS011;7036;50.834;4.718;2024-01-27T01:52:17;5.10;;;3.58;;
13927;SDS011;7036;50.834;4.718;2024-01-27T01:54:48;7.45;;;3.45;;
13927;SDS011;7036;50.834;4.718;2024-01-27T01:57:12;7.15;;;3.58;;
13927;SDS011;7036;50.834;4.718;2024-01-27T01:59:39;6.28;;;3.80;;
13927;SDS011;7036;50.834;4.718;2024-01-27T02:02:10;5.10;;;3.55;;
13927;SDS011;7036;50.834;4.718;2024-01-27T02:04:43;5.00;;;3.80;;
13927;SDS011;7036;50.834;4.718;2024-01-27T02:07:09;7.20;;;4.07;;
13927;SDS011;7036;50.834;4.718;2024-01-27T02:09:37;7.70;;;4.22;;
13927;SDS011;7036;50.834;4.718;2024-01-27T02:12:05;6.10;;;3.47;;
13927;SDS011;7036;50.834;4.718;2024-01-27T02:14:32;6.45;;;4.00;;
13927;SDS011;7036;50.834;4.718;2024-01-27T02:17:00;7.45;;;3.83;;
13927;SDS011;7036;50.834;4.718;2024-01-27T02:19:28;5.63;;;3.90;;
13927;SDS011;7036;50.834;4.718;2024-01-27T02:21:56;6.63;;;3.97;;
13927;SDS011;7036;50.834;4.718;2024-01-27T02:24:24;5.32;;;3.83;;
13927;SDS011;7036;50.834;4.718;2024-01-27T02:26:52;7.80;;;3.92;;
13927;SDS011;7036;50.834;4.718;2024-01-27T02:29:20;6.30;;;3.70;;
13927;SDS011;7036;50.834;4.718;2024-01-27T02:31:47;4.35;;;3.45;;
13927;SDS011;7036;50.834;4.718;2024-01-27T02:34:14;5.18;;;4.07;;
13927;SDS011;7036;50.834;4.718;2024-01-27T02:36:42;6.10;;;3.83;;
13927;SDS011;7036;50.834;4.718;2024-01-27T02:39:10;7.70;;;3.78;;
13927;SDS011;7036;50.834;4.718;2024-01-27T02:41:38;7.68;;;4.00;;
13927;SDS011;7036;50.834;4.718;2024-01-27T02:44:06;5.32;;;4.00;;
13927;SDS011;7036;50.834;4.718;2024-01-27T02:46:34;5.70;;;4.25;;
13927;SDS011;7036;50.834;4.718;2024-01-27T02:49:02;7.72;;;4.28;;
13927;SDS011;7036;50.834;4.718;2024-01-27T02:51:29;5.88;;;4.13;;
13927;SDS011;7036;50.834;4.718;2024-01-27T02:53:57;5.60;;;3.53;;
13927;SDS011;7036;50.834;4.718;2024-01-27T02:56:25;6.78;;;3.95;;
13927;SDS011;7036;50.834;4.718;2024-01-27T02:58:53;8.90;;;4.55;;
13927;SDS011;7036;50.834;4.718;2024-01-27T03:01:20;6.70;;;3.87;;
13927;SDS011;7036;50.834;4.718;2024-01-27T03:03:47;8.15;;;4.80;;
13927;SDS011;7036;50.834;4.718;2024-01-27T03:06:15;6.00;;;3.75;;
13927;SDS011;7036;50.834;4.718;2024-01-27T03:08:43;6.30;;;3.72;;
13927;SDS011;7036;50.834;4.718;2024-01-27T03:11:11;6.20;;;3.58;;
13927;SDS011;7036;50.834;4.718;2024-01-27T03:13:39;5.32;;;4.05;;
13927;SDS011;7036;50.834;4.718;2024-01-27T03:16:08;8.23;;;4.72;;
13927;SDS011;7036;50.834;4.718;2024-01-27T03:18:35;6.93;;;4.30;;
13927;SDS011;7036;50.834;4.718;2024-01-27T03:21:03;5.93;;;3.72;;
13927;SDS011;7036;50.834;4.718;2024-01-27T03:23:31;7.60;;;4.88;;
13927;SDS011;7036;50.834;4.718;2024-01-27T03:25:59;5.35;;;3.83;;
13927;SDS011;7036;50.834;4.718;2024-01-27T03:28:27;6.82;;;4.13;;
13927;SDS011;7036;50.834;4.718;2024-01-27T03:30:55;6.55;;;3.83;;
13927;SDS011;7036;50.834;4.718;2024-01-27T03:33:23;6.97;;;4.55;;
13927;SDS011;7036;50.834;4.718;2024-01-27T03:35:51;7.65;;;4.22;;
13927;SDS011;7036;50.834;4.718;2024-01-27T03:38:19;8.45;;;4.95;;
13927;SDS011;7036;50.834;4.718;2024-01-27T03:40:47;7.35;;;4.13;;
13927;SDS011;7036;50.834;4.718;2024-01-27T03:43:15;5.60;;;4.10;;
13927;SDS011;7036;50.834;4.718;2024-01-27T03:45:43;6.63;;;4.20;;
13927;SDS011;7036;50.834;4.718;2024-01-27T03:48:11;5.78;;;4.10;;
13927;SDS011;7036;50.834;4.718;2024-01-27T03:50:39;6.13;;;4.30;;
13927;SDS011;7036;50.834;4.718;2024-01-27T03:53:07;8.55;;;4.68;;
13927;SDS011;7036;50.834;4.718;2024-01-27T03:55:35;6.22;;;3.83;;
13927;SDS011;7036;50.834;4.718;2024-01-27T03:58:02;7.40;;;4.22;;
13927;SDS011;7036;50.834;4.718;2024-01-27T04:00:29;8.32;;;4.78;;
13927;SDS011;7036;50.834;4.718;2024-01-27T04:02:57;5.07;;;4.28;;
13927;SDS011;7036;50.834;4.718;2024-01-27T04:05:25;7.65;;;3.90;;
13927;SDS011;7036;50.834;4.718;2024-01-27T04:07:53;7.30;;;4.38;;
13927;SDS011;7036;50.834;4.718;2024-01-27T04:10:21;6.20;;;4.60;;
13927;SDS011;7036;50.834;4.718;2024-01-27T04:12:49;6.10;;;4.32;;
13927;SDS011;7036;50.834;4.718;2024-01-27T04:15:17;7.53;;;4.43;;
13927;SDS011;7036;50.834;4.718;2024-01-27T04:17:45;6.78;;;4.90;;
13927;SDS011;7036;50.834;4.718;2024-01-27T04:20:13;7.55;;;4.30;;
13927;SDS011;7036;50.834;4.718;2024-01-27T04:22:40;5.57;;;4.15;;
13927;SDS011;7036;50.834;4.718;2024-01-27T04:25:08;6.32;;;4.63;;
13927;SDS011;7036;50.834;4.718;2024-01-27T04:27:37;5.43;;;4.25;;
13927;SDS011;7036;50.834;4.718;2024-01-27T04:30:04;6.97;;;4.63;;
13927;SDS011;7036;50.834;4.718;2024-01-27T04:32:31;6.73;;;4.30;;
13927;SDS011;7036;50.834;4.718;2024-01-27T04:34:59;7.65;;;4.28;;
13927;SDS011;7036;50.834;4.718;2024-01-27T04:37:27;6.55;;;4.28;;
13927;SDS011;7036;50.834;4.718;2024-01-27T04:39:55;5.75;;;4.28;;
13927;SDS011;7036;50.834;4.718;2024-01-27T04:42:23;5.32;;;3.88;;
13927;SDS011;7036;50.834;4.718;2024-01-27T04:44:51;7.30;;;4.75;;
13927;SDS011;7036;50.834;4.718;2024-01-27T04:47:20;5.50;;;4.15;;
13927;SDS011;7036;50.834;4.718;2024-01-27T04:49:46;8.20;;;4.60;;
13927;SDS011;7036;50.834;4.718;2024-01-27T04:52:13;7.30;;;4.47;;
13927;SDS011;7036;50.834;4.718;2024-01-27T04:54:41;5.47;;;4.35;;
13927;SDS011;7036;50.834;4.718;2024-01-27T04:57:09;6.32;;;4.65;;
13927;SDS011;7036;50.834;4.718;2024-01-27T04:59:36;6.85;;;4.07;;
13927;SDS011;7036;50.834;4.718;2024-01-27T05:02:04;5.50;;;4.13;;
13927;SDS011;7036;50.834;4.718;2024-01-27T05:04:32;5.97;;;4.30;;
13927;SDS011;7036;50.834;4.718;2024-01-27T05:07:01;8.07;;;4.13;;
13927;SDS011;7036;50.834;4.718;2024-01-27T05:09:28;7.77;;;4.70;;
13927;SDS011;7036;50.834;4.718;2024-01-27T05:11:56;6.18;;;4.15;;
13927;SDS011;7036;50.834;4.718;2024-01-27T05:14:23;6.93;;;4.43;;
13927;SDS011;7036;50.834;4.718;2024-01-27T05:16:51;6.10;;;4.43;;
13927;SDS011;7036;50.834;4.718;2024-01-27T05:19:19;6.18;;;4.22;;
13927;SDS011;7036;50.834;4.718;2024-01-27T05:21:47;5.68;;;4.32;;
13927;SDS011;7036;50.834;4.718;2024-01-27T05:24:15;6.18;;;4.60;;
13927;SDS011;7036;50.834;4.718;2024-01-27T05:26:43;6.97;;;4.63;;
13927;SDS011;7036;50.834;4.718;2024-01-27T05:29:12;8.32;;;5.13;;
13927;SDS011;7036;50.834;4.718;2024-01-27T05:31:38;6.30;;;5.23;;
13927;SDS011;7036;50.834;4.718;2024-01-27T05:34:06;6.07;;;4.68;;
13927;SDS011;7036;50.834;4.718;2024-01-27T05:36:35;6.72;;;4.30;;
13927;SDS011;7036;50.834;4.718;2024-01-27T05:39:02;7.73;;;4.73;;
13927;SDS011;7036;50.834;4.718;2024-01-27T05:41:30;6.03;;;4.38;;
13927;SDS011;7036;50.834;4.718;2024-01-27T05:43:58;8.98;;;5.03;;
13927;SDS011;7036;50.834;4.718;2024-01-27T05:46:26;6.72;;;5.00;;
13927;SDS011;7036;50.834;4.718;2024-01-27T05:48:54;7.55;;;5.32;;
13927;SDS011;7036;50.834;4.718;2024-01-27T05:51:22;6.32;;;4.63;;
13927;SDS011;7036;50.834;4.718;2024-01-27T05:53:52;4.87;;;3.97;;
13927;SDS011;7036;50.834;4.718;2024-01-27T05:56:19;7.45;;;4.30;;
13927;SDS011;7036;50.834;4.718;2024-01-27T05:58:50;5.82;;;4.70;;
13927;SDS011;7036;50.834;4.718;2024-01-27T06:01:19;6.60;;;4.83;;
13927;SDS011;7036;50.834;4.718;2024-01-27T06:03:46;6.70;;;4.70;;
13927;SDS011;7036;50.834;4.718;2024-01-27T06:06:14;6.47;;;4.25;;
13927;SDS011;7036;50.834;4.718;2024-01-27T06:08:42;8.02;;;4.90;;
13927;SDS011;7036;50.834;4.718;2024-01-27T06:11:10;4.80;;;4.30;;
13927;SDS011;7036;50.834;4.718;2024-01-27T06:13:38;6.13;;;4.93;;
13927;SDS011;7036;50.834;4.718;2024-01-27T06:16:07;5.80;;;4.40;;
13927;SDS011;7036;50.834;4.718;2024-01-27T06:18:33;6.72;;;4.65;;
13927;SDS011;7036;50.834;4.718;2024-01-27T06:21:02;5.55;;;4.65;;
13927;SDS011;7036;50.834;4.718;2024-01-27T06:23:29;6.25;;;5.00;;
13927;SDS011;7036;50.834;4.718;2024-01-27T06:25:57;6.93;;;5.05;;
13927;SDS011;7036;50.834;4.718;2024-01-27T06:28:24;8.30;;;4.90;;
13927;SDS011;7036;50.834;4.718;2024-01-27T06:30:52;8.95;;;5.10;;
13927;SDS011;7036;50.834;4.718;2024-01-27T06:33:21;6.45;;;4.93;;
13927;SDS011;7036;50.834;4.718;2024-01-27T06:35:49;5.50;;;4.47;;
13927;SDS011;7036;50.834;4.718;2024-01-27T06:38:16;7.30;;;5.63;;
13927;SDS011;7036;50.834;4.718;2024-01-27T06:40:44;8.02;;;5.13;;
13927;SDS011;7036;50.834;4.718;2024-01-27T06:43:12;6.05;;;4.80;;
13927;SDS011;7036;50.834;4.718;2024-01-27T06:45:40;6.63;;;4.75;;
13927;SDS011;7036;50.834;4.718;2024-01-27T06:48:08;6.68;;;4.90;;
13927;SDS011;7036;50.834;4.718;2024-01-27T06:50:35;6.65;;;4.45;;
13927;SDS011;7036;50.834;4.718;2024-01-27T06:53:03;6.20;;;4.68;;
13927;SDS011;7036;50.834;4.718;2024-01-27T06:55:31;7.38;;;5.35;;
13927;SDS011;7036;50.834;4.718;2024-01-27T06:57:58;7.30;;;4.57;;
13927;SDS011;7036;50.834;4.718;2024-01-27T07:00:26;7.63;;;5.03;;
13927;SDS011;7036;50.834;4.718;2024-01-27T07:02:53;6.75;;;4.60;;
13927;SDS011;7036;50.834;4.718;2024-01-27T07:05:21;6.47;;;5.05;;
13927;SDS011;7036;50.834;4.718;2024-01-27T07:07:49;8.40;;;4.90;;
13927;SDS011;7036;50.834;4.718;2024-01-27T07:10:17;6.25;;;5.05;;
13927;SDS011;7036;50.834;4.718;2024-01-27T07:12:44;6.23;;;4.63;;
13927;SDS011;7036;50.834;4.718;2024-01-27T07:15:12;7.90;;;5.13;;
13927;SDS011;7036;50.834;4.718;2024-01-27T07:17:40;8.55;;;5.28;;
13927;SDS011;7036;50.834;4.718;2024-01-27T07:20:08;8.35;;;5.07;;
13927;SDS011;7036;50.834;4.718;2024-01-27T07:22:36;6.83;;;5.07;;
13927;SDS011;7036;50.834;4.718;2024-01-27T07:25:02;7.43;;;4.73;;
13927;SDS011;7036;50.834;4.718;2024-01-27T07:27:30;7.50;;;5.18;;
13927;SDS011;7036;50.834;4.718;2024-01-27T07:29:58;7.60;;;5.05;;
13927;SDS011;7036;50.834;4.718;2024-01-27T07:32:25;6.57;;;5.07;;
13927;SDS011;7036;50.834;4.718;2024-01-27T07:34:53;5.95;;;4.47;;
13927;SDS011;7036;50.834;4.718;2024-01-27T07:37:21;6.63;;;4.47;;
13927;SDS011;7036;50.834;4.718;2024-01-27T07:39:49;6.93;;;4.65;;
13927;SDS011;7036;50.834;4.718;2024-01-27T07:42:17;7.88;;;4.88;;
13927;SDS011;7036;50.834;4.718;2024-01-27T07:44:45;6.85;;;4.63;;
13927;SDS011;7036;50.834;4.718;2024-01-27T07:47:13;6.03;;;4.68;;
13927;SDS011;7036;50.834;4.718;2024-01-27T07:49:41;5.97;;;4.70;;
13927;SDS011;7036;50.834;4.718;2024-01-27T07:52:08;7.85;;;4.35;;
13927;SDS011;7036;50.834;4.718;2024-01-27T07:54:36;6.72;;;4.70;;
13927;SDS011;7036;50.834;4.718;2024-01-27T07:57:05;7.57;;;5.25;;
13927;SDS011;7036;50.834;4.718;2024-01-27T07:59:32;5.97;;;4.63;;
13927;SDS011;7036;50.834;4.718;2024-01-27T08:02:00;8.98;;;5.45;;
13927;SDS011;7036;50.834;4.718;2024-01-27T08:04:28;5.55;;;4.80;;
13927;SDS011;7036;50.834;4.718;2024-01-27T08:06:55;7.10;;;5.15;;
13927;SDS011;7036;50.834;4.718;2024-01-27T08:09:23;6.80;;;5.03;;
13927;SDS011;7036;50.834;4.718;2024-01-27T08:11:52;8.80;;;4.72;;
13927;SDS011;7036;50.834;4.718;2024-01-27T08:14:18;9.33;;;4.47;;
13927;SDS011;7036;50.834;4.718;2024-01-27T08:16:46;8.82;;;5.40;;
13927;SDS011;7036;50.834;4.718;2024-01-27T08:19:14;11.52;;;4.70;;
13927;SDS011;7036;50.834;4.718;2024-01-27T08:21:42;7.15;;;4.75;;
13927;SDS011;7036;50.834;4.718;2024-01-27T08:24:10;7.95;;;5.43;;
13927;SDS011;7036;50.834;4.718;2024-01-27T08:26:37;7.43;;;5.00;;
13927;SDS011;7036;50.834;4.718;2024-01-27T08:29:05;6.25;;;4.07;;
13927;SDS011;7036;50.834;4.718;2024-01-27T08:31:33;7.20;;;4.50;;
13927;SDS011;7036;50.834;4.718;2024-01-27T08:34:01;6.43;;;4.70;;
13927;SDS011;7036;50.834;4.718;2024-01-27T08:36:29;11.93;;;4.80;;
13927;SDS011;7036;50.834;4.718;2024-01-27T08:38:57;9.40;;;4.50;;
13927;SDS011;7036;50.834;4.718;2024-01-27T08:41:24;7.53;;;4.57;;
13927;SDS011;7036;50.834;4.718;2024-01-27T08:43:52;5.95;;;4.35;;
13927;SDS011;7036;50.834;4.718;2024-01-27T08:46:20;7.45;;;4.60;;
13927;SDS011;7036;50.834;4.718;2024-01-27T08:48:47;8.35;;;4.88;;
13927;SDS011;7036;50.834;4.718;2024-01-27T08:51:15;7.30;;;4.55;;
13927;SDS011;7036;50.834;4.718;2024-01-27T08:53:46;7.35;;;4.60;;
13927;SDS011;7036;50.834;4.718;2024-01-27T08:56:12;9.00;;;4.73;;
13927;SDS011;7036;50.834;4.718;2024-01-27T08:58:41;9.38;;;4.20;;
13927;SDS011;7036;50.834;4.718;2024-01-27T09:01:09;4.95;;;4.10;;
13927;SDS011;7036;50.834;4.718;2024-01-27T09:03:36;7.53;;;4.60;;
13927;SDS011;7036;50.834;4.718;2024-01-27T09:06:04;6.22;;;4.28;;
13927;SDS011;7036;50.834;4.718;2024-01-27T09:08:32;8.43;;;4.00;;
13927;SDS011;7036;50.834;4.718;2024-01-27T09:11:00;9.57;;;4.60;;
13927;SDS011;7036;50.834;4.718;2024-01-27T09:13:27;7.47;;;4.22;;
13927;SDS011;7036;50.834;4.718;2024-01-27T09:15:59;8.45;;;4.47;;
13927;SDS011;7036;50.834;4.718;2024-01-27T09:18:26;9.03;;;4.40;;
13927;SDS011;7036;50.834;4.718;2024-01-27T09:20:53;7.35;;;4.10;;
13927;SDS011;7036;50.834;4.718;2024-01-27T09:23:21;11.68;;;4.78;;
13927;SDS011;7036;50.834;4.718;2024-01-27T09:25:48;5.03;;;4.00;;
13927;SDS011;7036;50.834;4.718;2024-01-27T09:28:16;8.40;;;4.97;;
13927;SDS011;7036;50.834;4.718;2024-01-27T09:30:44;6.88;;;4.20;;
13927;SDS011;7036;50.834;4.718;2024-01-27T09:33:12;7.97;;;3.95;;
13927;SDS011;7036;50.834;4.718;2024-01-27T09:35:39;8.48;;;4.40;;
13927;SDS011;7036;50.834;4.718;2024-01-27T09:38:07;9.07;;;4.38;;
13927;SDS011;7036;50.834;4.718;2024-01-27T09:40:35;7.93;;;4.32;;
13927;SDS011;7036;50.834;4.718;2024-01-27T09:43:02;8.85;;;4.68;;
13927;SDS011;7036;50.834;4.718;2024-01-27T09:45:30;8.38;;;5.10;;
13927;SDS011;7036;50.834;4.718;2024-01-27T09:47:58;7.70;;;4.22;;
13927;SDS011;7036;50.834;4.718;2024-01-27T09:50:26;6.40;;;3.72;;
13927;SDS011;7036;50.834;4.718;2024-01-27T09:52:54;6.00;;;4.05;;
13927;SDS011;7036;50.834;4.718;2024-01-27T09:55:22;6.70;;;4.38;;
13927;SDS011;7036;50.834;4.718;2024-01-27T09:57:50;6.05;;;3.65;;
13927;SDS011;7036;50.834;4.718;2024-01-27T10:00:18;9.07;;;4.53;;
13927;SDS011;7036;50.834;4.718;2024-01-27T10:02:45;5.85;;;3.75;;
13927;SDS011;7036;50.834;4.718;2024-01-27T10:05:13;8.73;;;4.55;;
13927;SDS011;7036;50.834;4.718;2024-01-27T10:07:41;6.53;;;4.38;;
13927;SDS011;7036;50.834;4.718;2024-01-27T10:10:09;7.20;;;4.05;;
13927;SDS011;7036;50.834;4.718;2024-01-27T10:12:40;8.45;;;4.50;;
13927;SDS011;7036;50.834;4.718;2024-01-27T10:15:07;6.03;;;3.87;;
13927;SDS011;7036;50.834;4.718;2024-01-27T10:17:34;6.25;;;4.25;;
13927;SDS011;7036;50.834;4.718;2024-01-27T10:20:02;7.55;;;4.80;;
13927;SDS011;7036;50.834;4.718;2024-01-27T10:22:39;5.60;;;4.13;;
13927;SDS011;7036;50.834;4.718;2024-01-27T10:25:08;5.00;;;3.90;;
13927;SDS011;7036;50.834;4.718;2024-01-27T10:27:32;5.07;;;3.70;;
13927;SDS011;7036;50.834;4.718;2024-01-27T10:30:00;7.38;;;3.50;;
13927;SDS011;7036;50.834;4.718;2024-01-27T10:32:28;5.93;;;3.95;;
13927;SDS011;7036;50.834;4.718;2024-01-27T10:35:03;6.15;;;4.25;;
13927;SDS011;7036;50.834;4.718;2024-01-27T10:37:32;5.77;;;4.03;;
13927;SDS011;7036;50.834;4.718;2024-01-27T10:40:03;7.63;;;3.83;;
13927;SDS011;7036;50.834;4.718;2024-01-27T10:42:29;5.40;;;3.90;;
13927;SDS011;7036;50.834;4.718;2024-01-27T10:44:59;5.80;;;4.07;;
13927;SDS011;7036;50.834;4.718;2024-01-27T10:47:27;7.22;;;3.75;;
13927;SDS011;7036;50.834;4.718;2024-01-27T10:49:55;6.97;;;3.45;;
13927;SDS011;7036;50.834;4.718;2024-01-27T10:52:23;6.00;;;3.47;;
13927;SDS011;7036;50.834;4.718;2024-01-27T10:54:50;7.50;;;3.33;;
13927;SDS011;7036;50.834;4.718;2024-01-27T10:57:18;6.05;;;4.18;;
13927;SDS011;7036;50.834;4.718;2024-01-27T10:59:46;6.68;;;3.95;;
13927;SDS011;7036;50.834;4.718;2024-01-27T11:02:13;5.03;;;3.50;;
13927;SDS011;7036;50.834;4.718;2024-01-27T11:04:42;6.57;;;3.72;;
13927;SDS011;7036;50.834;4.718;2024-01-27T11:07:09;6.05;;;3.92;;
13927;SDS011;7036;50.834;4.718;2024-01-27T11:09:37;7.70;;;3.35;;
13927;SDS011;7036;50.834;4.718;2024-01-27T11:12:05;7.00;;;3.88;;
13927;SDS011;7036;50.834;4.718;2024-01-27T11:14:33;5.90;;;3.53;;
13927;SDS011;7036;50.834;4.718;2024-01-27T11:17:01;5.85;;;3.65;;
13927;SDS011;7036;50.834;4.718;2024-01-27T11:19:29;5.60;;;3.40;;
13927;SDS011;7036;50.834;4.718;2024-01-27T11:22:03;5.45;;;3.42;;
13927;SDS011;7036;50.834;4.718;2024-01-27T11:24:30;5.90;;;3.67;;
13927;SDS011;7036;50.834;4.718;2024-01-27T11:27:02;7.50;;;4.10;;
13927;SDS011;7036;50.834;4.718;2024-01-27T11:29:27;6.47;;;4.10;;
13927;SDS011;7036;50.834;4.718;2024-01-27T11:31:55;6.95;;;4.05;;
13927;SDS011;7036;50.834;4.718;2024-01-27T11:34:22;6.53;;;3.78;;
13927;SDS011;7036;50.834;4.718;2024-01-27T11:36:50;5.63;;;3.70;;
13927;SDS011;7036;50.834;4.718;2024-01-27T11:39:36;7.38;;;3.80;;
13927;SDS011;7036;50.834;4.718;2024-01-27T11:42:15;4.83;;;3.37;;
13927;SDS011;7036;50.834;4.718;2024-01-27T11:44:34;7.73;;;3.30;;
13927;SDS011;7036;50.834;4.718;2024-01-27T11:47:00;5.80;;;3.70;;
13927;SDS011;7036;50.834;4.718;2024-01-27T11:49:28;5.45;;;3.15;;
13927;SDS011;7036;50.834;4.718;2024-01-27T11:51:56;7.43;;;3.67;;
13927;SDS011;7036;50.834;4.718;2024-01-27T11:54:24;5.72;;;3.45;;
13927;SDS011;7036;50.834;4.718;2024-01-27T11:56:51;7.28;;;3.85;;
13927;SDS011;7036;50.834;4.718;2024-01-27T11:59:18;6.95;;;3.70;;
13927;SDS011;7036;50.834;4.718;2024-01-27T12:01:46;6.18;;;3.67;;
13927;SDS011;7036;50.834;4.718;2024-01-27T12:04:14;7.75;;;4.28;;
13927;SDS011;7036;50.834;4.718;2024-01-27T12:06:43;5.28;;;3.55;;
13927;SDS011;7036;50.834;4.718;2024-01-27T12:09:10;6.13;;;4.15;;
13927;SDS011;7036;50.834;4.718;2024-01-27T12:11:38;5.93;;;3.72;;
13927;SDS011;7036;50.834;4.718;2024-01-27T12:14:06;5.38;;;3.35;;
13927;SDS011;7036;50.834;4.718;2024-01-27T12:16:34;5.43;;;3.25;;
13927;SDS011;7036;50.834;4.718;2024-01-27T12:19:01;4.70;;;3.13;;
13927;SDS011;7036;50.834;4.718;2024-01-27T12:21:29;4.85;;;3.50;;
13927;SDS011;7036;50.834;4.718;2024-01-27T12:23:58;8.63;;;3.72;;
13927;SDS011;7036;50.834;4.718;2024-01-27T12:26:25;6.60;;;3.42;;
13927;SDS011;7036;50.834;4.718;2024-01-27T12:28:53;8.07;;;3.88;;
13927;SDS011;7036;50.834;4.718;2024-01-27T12:31:20;6.63;;;3.28;;
13927;SDS011;7036;50.834;4.718;2024-01-27T12:33:50;5.47;;;3.13;;
13927;SDS011;7036;50.834;4.718;2024-01-27T12:36:17;8.17;;;3.80;;
13927;SDS011;7036;50.834;4.718;2024-01-27T12:38:53;9.25;;;4.10;;
13927;SDS011;7036;50.834;4.718;2024-01-27T12:41:21;7.27;;;3.60;;
13927;SDS011;7036;50.834;4.718;2024-01-27T12:43:48;6.60;;;3.60;;
13927;SDS011;7036;50.834;4.718;2024-01-27T12:46:16;6.97;;;3.78;;
13927;SDS011;7036;50.834;4.718;2024-01-27T12:48:47;7.07;;;3.70;;
13927;SDS011;7036;50.834;4.718;2024-01-27T12:51:14;7.30;;;3.53;;
13927;SDS011;7036;50.834;4.718;2024-01-27T12:53:42;8.73;;;3.90;;
13927;SDS011;7036;50.834;4.718;2024-01-27T12:56:10;6.60;;;3.65;;
13927;SDS011;7036;50.834;4.718;2024-01-27T12:58:38;8.85;;;3.33;;
13927;SDS011;7036;50.834;4.718;2024-01-27T13:01:06;8.25;;;4.13;;
13927;SDS011;7036;50.834;4.718;2024-01-27T13:03:33;6.00;;;3.88;;
13927;SDS011;7036;50.834;4.718;2024-01-27T13:06:00;4.85;;;3.35;;
13927;SDS011;7036;50.834;4.718;2024-01-27T13:08:28;5.35;;;3.30;;
13927;SDS011;7036;50.834;4.718;2024-01-27T13:10:56;5.63;;;3.55;;
13927;SDS011;7036;50.834;4.718;2024-01-27T13:13:24;4.78;;;2.95;;
13927;SDS011;7036;50.834;4.718;2024-01-27T13:15:52;7.65;;;3.60;;
13927;SDS011;7036;50.834;4.718;2024-01-27T13:18:20;7.30;;;3.15;;
13927;SDS011;7036;50.834;4.718;2024-01-27T13:20:47;6.30;;;3.35;;
13927;SDS011;7036;50.834;4.718;2024-01-27T13:23:14;7.05;;;3.60;;
13927;SDS011;7036;50.834;4.718;2024-01-27T13:25:42;8.15;;;3.78;;
13927;SDS011;7036;50.834;4.718;2024-01-27T13:28:10;4.85;;;2.70;;
13927;SDS011;7036;50.834;4.718;2024-01-27T13:30:37;5.77;;;3.23;;
13927;SDS011;7036;50.834;4.718;2024-01-27T13:33:04;6.50;;;3.30;;
13927;SDS011;7036;50.834;4.718;2024-01-27T13:35:32;5.72;;;2.97;;
13927;SDS011;7036;50.834;4.718;2024-01-27T13:38:00;5.65;;;3.10;;
13927;SDS011;7036;50.834;4.718;2024-01-27T13:40:27;7.57;;;3.78;;
13927;SDS011;7036;50.834;4.718;2024-01-27T13:42:55;5.78;;;3.72;;
13927;SDS011;7036;50.834;4.718;2024-01-27T13:45:23;6.75;;;3.25;;
13927;SDS011;7036;50.834;4.718;2024-01-27T13:47:51;3.60;;;2.92;;
13927;SDS011;7036;50.834;4.718;2024-01-27T13:50:19;4.97;;;2.67;;
13927;SDS011;7036;50.834;4.718;2024-01-27T13:52:47;5.15;;;3.10;;
13927;SDS011;7036;50.834;4.718;2024-01-27T13:55:15;5.55;;;2.85;;
13927;SDS011;7036;50.834;4.718;2024-01-27T13:57:43;5.47;;;3.10;;
13927;SDS011;7036;50.834;4.718;2024-01-27T14:00:11;5.65;;;2.80;;
13927;SDS011;7036;50.834;4.718;2024-01-27T14:02:38;6.90;;;3.22;;
13927;SDS011;7036;50.834;4.718;2024-01-27T14:05:06;5.10;;;2.78;;
13927;SDS011;7036;50.834;4.718;2024-01-27T14:07:33;6.28;;;2.85;;
13927;SDS011;7036;50.834;4.718;2024-01-27T14:10:01;8.77;;;3.40;;
13927;SDS011;7036;50.834;4.718;2024-01-27T14:12:29;3.95;;;2.60;;
13927;SDS011;7036;50.834;4.718;2024-01-27T14:15:03;4.82;;;2.65;;
13927;SDS011;7036;50.834;4.718;2024-01-27T14:17:29;4.30;;;2.50;;
13927;SDS011;7036;50.834;4.718;2024-01-27T14:19:57;4.90;;;2.65;;
13927;SDS011;7036;50.834;4.718;2024-01-27T14:22:25;6.45;;;2.83;;
13927;SDS011;7036;50.834;4.718;2024-01-27T14:24:52;6.10;;;2.60;;
13927;SDS011;7036;50.834;4.718;2024-01-27T14:27:20;4.13;;;2.63;;
13927;SDS011;7036;50.834;4.718;2024-01-27T14:29:48;3.75;;;2.65;;
13927;SDS011;7036;50.834;4.718;2024-01-27T14:32:15;4.03;;;2.60;;
13927;SDS011;7036;50.834;4.718;2024-01-27T14:34:43;4.28;;;3.05;;
13927;SDS011;7036;50.834;4.718;2024-01-27T14:37:11;3.38;;;2.38;;
13927;SDS011;7036;50.834;4.718;2024-01-27T14:39:39;4.35;;;2.72;;
13927;SDS011;7036;50.834;4.718;2024-01-27T14:42:09;5.37;;;2.93;;
13927;SDS011;7036;50.834;4.718;2024-01-27T14:44:36;6.57;;;2.60;;
13927;SDS011;7036;50.834;4.718;2024-01-27T14:47:04;4.10;;;2.53;;
13927;SDS011;7036;50.834;4.718;2024-01-27T14:49:32;6.93;;;2.85;;
13927;SDS011;7036;50.834;4.718;2024-01-27T14:52:00;5.88;;;3.00;;
13927;SDS011;7036;50.834;4.718;2024-01-27T14:54:28;4.82;;;2.38;;
13927;SDS011;7036;50.834;4.718;2024-01-27T14:56:56;5.78;;;2.33;;
13927;SDS011;7036;50.834;4.718;2024-01-27T14:59:23;9.02;;;2.55;;
13927;SDS011;7036;50.834;4.718;2024-01-27T15:01:51;5.63;;;2.53;;
13927;SDS011;7036;50.834;4.718;2024-01-27T15:04:19;4.75;;;2.17;;